Time;durP1;ratioP1;P1;durP2;ratioP2;P2;SDS_P1;SDS_P2;PMS_P1;PMS_P2;Temp;Humidity;BMP_temperature;BMP_pressure;BME280_temperature;BME280_humidity;BME280_pressure;Samples;Min_cycle;Max_cycle;Signal;HPM_P1;HPM_P2
2021/08/23 00:00:24;;;;;;;3.35;1.13;;;20.30;65.80;;;;;;5073930;28;20028;-74
2021/08/23 00:02:52;;;;;;;1.80;1.00;;;20.30;65.90;;;;;;5073404;28;20029;-68
2021/08/23 00:05:19;;;;;;;3.05;1.60;;;20.30;65.80;;;;;;5072771;28;20067;-72
2021/08/23 00:07:47;;;;;;;1.85;1.23;;;20.30;66.30;;;;;;5072147;28;20020;-68
2021/08/23 00:10:14;;;;;;;2.22;1.08;;;20.40;66.10;;;;;;5072968;28;20585;-70
2021/08/23 00:12:42;;;;;;;3.22;1.02;;;20.40;65.70;;;;;;5072823;28;20032;-70
2021/08/23 00:15:10;;;;;;;4.20;1.33;;;20.40;65.90;;;;;;5072772;28;20120;-69
2021/08/23 00:17:37;;;;;;;2.50;1.13;;;20.60;65.40;;;;;;5072770;28;20094;-72
2021/08/23 00:20:06;;;;;;;2.42;1.15;;;20.70;65.30;;;;;;5072969;28;20028;-71
2021/08/23 00:22:47;;;;;;;23.30;2.55;;;20.90;64.80;;;;;;5072714;28;20383;-72
2021/08/23 00:25:16;;;;;;;1.90;1.20;;;20.80;64.60;;;;;;5071266;28;20056;-73
2021/08/23 00:27:43;;;;;;;1.98;1.00;;;20.70;65.60;;;;;;5072833;28;20029;-69
2021/08/23 00:30:14;;;;;;;2.35;1.48;;;20.90;64.80;;;;;;5070696;28;20028;-69
2021/08/23 00:32:44;;;;;;;1.90;1.25;;;21.00;64.20;;;;;;5075858;28;22033;-73
2021/08/23 00:35:12;;;;;;;1.83;0.90;;;21.20;64.10;;;;;;5076573;28;20036;-72
2021/08/23 00:37:39;;;;;;;2.53;1.00;;;21.20;63.80;;;;;;5076338;28;20401;-71
2021/08/23 00:40:07;;;;;;;1.00;0.90;;;21.30;63.30;;;;;;5075770;28;20447;-71
2021/08/23 00:42:34;;;;;;;2.28;1.27;;;21.40;62.90;;;;;;5076561;28;20107;-70
2021/08/23 00:45:03;;;;;;;1.83;1.05;;;21.30;63.20;;;;;;5076285;28;20077;-72
2021/08/23 00:47:30;;;;;;;3.20;1.52;;;21.40;63.00;;;;;;5075859;28;20020;-70
2021/08/23 00:49:57;;;;;;;2.30;1.30;;;21.30;63.00;;;;;;5076003;28;20100;-72
2021/08/23 00:52:26;;;;;;;3.47;1.13;;;21.30;63.20;;;;;;5075918;28;20024;-72
2021/08/23 00:54:54;;;;;;;2.35;1.15;;;21.30;63.20;;;;;;5075495;28;20024;-72
2021/08/23 00:57:21;;;;;;;3.75;0.90;;;21.20;63.50;;;;;;5075422;28;20029;-73
2021/08/23 00:59:52;;;;;;;2.50;1.10;;;21.30;63.50;;;;;;5075539;28;20379;-71
2021/08/23 01:02:30;;;;;;;1.60;1.10;;;21.20;64.40;;;;;;5076130;28;20489;-70
2021/08/23 01:05:14;;;;;;;3.05;0.98;;;21.20;64.00;;;;;;5076245;28;20021;-69
2021/08/23 01:07:48;;;;;;;1.30;0.75;;;21.10;64.20;;;;;;5075633;28;20037;-72
2021/08/23 01:10:18;;;;;;;2.67;0.90;;;21.10;64.30;;;;;;5074201;28;20025;-68
2021/08/23 01:12:46;;;;;;;3.33;1.80;;;21.00;64.40;;;;;;5075550;28;20111;-68
2021/08/23 01:15:13;;;;;;;5.07;1.10;;;21.00;64.50;;;;;;5075269;28;20471;-65
2021/08/23 01:17:41;;;;;;;1.60;0.90;;;21.00;64.60;;;;;;5075267;28;20021;-68
2021/08/23 01:20:09;;;;;;;2.10;0.95;;;21.00;64.80;;;;;;5074369;28;20040;-67
2021/08/23 01:22:49;;;;;;;1.75;0.80;;;20.90;64.80;;;;;;5075347;28;20028;-72
2021/08/23 01:25:31;;;;;;;6.82;1.75;;;20.90;65.10;;;;;;5074848;28;20104;-69
2021/08/23 01:28:08;;;;;;;3.75;1.15;;;21.00;65.00;;;;;;5075230;28;20577;-70
2021/08/23 01:31:07;;;;;;;3.13;1.48;;;20.90;65.30;;;;;;5075197;28;20044;-68
2021/08/23 01:33:34;;;;;;;1.55;1.13;;;20.90;65.20;;;;;;5037846;28;20431;-70
2021/08/23 01:36:03;;;;;;;2.53;1.25;;;20.90;65.40;;;;;;5073966;28;20078;-69
2021/08/23 01:38:30;;;;;;;3.53;1.05;;;20.80;65.40;;;;;;5073768;28;20021;-71
2021/08/23 01:41:06;;;;;;;3.22;0.93;;;20.80;65.50;;;;;;5073414;28;20021;-72
2021/08/23 01:43:34;;;;;;;1.98;0.80;;;20.80;65.60;;;;;;5074432;28;20467;-71
2021/08/23 01:46:03;;;;;;;4.45;1.20;;;20.80;65.90;;;;;;5074956;28;20491;-69
2021/08/23 01:48:30;;;;;;;2.65;1.10;;;20.80;65.90;;;;;;5074634;28;20040;-67
2021/08/23 01:50:58;;;;;;;5.43;1.23;;;20.80;65.90;;;;;;5074939;28;20101;-68
2021/08/23 01:53:25;;;;;;;4.53;1.00;;;20.80;65.60;;;;;;5074456;28;20024;-68
2021/08/23 01:55:53;;;;;;;4.93;1.83;;;20.90;65.80;;;;;;5074960;28;20021;-65
2021/08/23 01:58:21;;;;;;;2.33;1.38;;;20.90;65.70;;;;;;5075090;28;20025;-68
2021/08/23 02:00:49;;;;;;;2.60;0.90;;;20.80;65.80;;;;;;5075160;28;20127;-68
2021/08/23 02:03:16;;;;;;;5.45;1.17;;;20.80;66.00;;;;;;5073985;28;20432;-64
2021/08/23 02:05:44;;;;;;;3.42;1.20;;;20.80;66.00;;;;;;5074936;28;20028;-66
2021/08/23 02:08:11;;;;;;;2.58;0.98;;;20.80;66.10;;;;;;5075017;28;20028;-66
2021/08/23 02:10:39;;;;;;;4.65;1.33;;;20.80;66.30;;;;;;5074642;28;20044;-65
2021/08/23 02:13:07;;;;;;;1.48;0.90;;;20.70;66.60;;;;;;5073494;28;20033;-66
2021/08/23 02:15:34;;;;;;;5.35;1.52;;;20.70;66.50;;;;;;5074745;28;20031;-67
2021/08/23 02:18:02;;;;;;;2.22;1.13;;;20.80;66.30;;;;;;5067225;28;20032;-73
2021/08/23 02:20:42;;;;;;;2.92;1.08;;;20.80;66.10;;;;;;5070156;28;20016;-64
2021/08/23 02:23:10;;;;;;;5.22;1.20;;;20.80;66.10;;;;;;5073685;28;20029;-69
2021/08/23 02:25:37;;;;;;;2.65;0.90;;;20.90;66.60;;;;;;5073323;28;20017;-71
2021/08/23 02:28:08;;;;;;;4.30;1.88;;;21.00;65.80;;;;;;5071280;28;20029;-67
2021/08/23 02:30:37;;;;;;;2.35;1.00;;;21.10;65.50;;;;;;5072990;28;20028;-70
2021/08/23 02:33:04;;;;;;;2.70;1.20;;;21.20;65.40;;;;;;5073622;28;20157;-71
2021/08/23 02:35:32;;;;;;;2.42;0.90;;;21.10;65.40;;;;;;5071930;28;20076;-66
2021/08/23 02:37:59;;;;;;;2.47;1.23;;;21.30;64.90;;;;;;5070093;28;20048;-67
2021/08/23 02:40:27;;;;;;;3.08;1.00;;;21.40;64.60;;;;;;5071344;28;20013;-66
2021/08/23 02:42:57;;;;;;;1.85;1.00;;;21.30;64.50;;;;;;5073698;28;20029;-68
2021/08/23 02:45:24;;;;;;;2.63;0.95;;;21.40;64.40;;;;;;5071347;28;20390;-62
2021/08/23 02:47:52;;;;;;;1.20;0.80;;;21.40;64.30;;;;;;5067740;28;20054;-66
2021/08/23 02:50:20;;;;;;;2.17;0.75;;;21.40;64.20;;;;;;5072021;28;20117;-66
2021/08/23 02:52:47;;;;;;;2.42;1.00;;;21.40;64.30;;;;;;5073103;28;20116;-67
2021/08/23 02:55:15;;;;;;;1.63;1.00;;;21.40;64.40;;;;;;5072800;28;20032;-75
2021/08/23 02:57:42;;;;;;;3.63;1.30;;;21.30;64.60;;;;;;5070641;28;20081;-72
2021/08/23 03:00:11;;;;;;;2.42;1.23;;;21.40;64.60;;;;;;5072694;28;20548;-68
2021/08/23 03:02:38;;;;;;;2.05;1.20;;;21.30;65.10;;;;;;5072847;28;20021;-65
2021/08/23 03:05:06;;;;;;;2.28;0.98;;;21.30;65.10;;;;;;5072631;28;20036;-69
2021/08/23 03:07:33;;;;;;;3.38;1.08;;;21.30;65.10;;;;;;5067821;28;20510;-64
2021/08/23 03:10:01;;;;;;;2.83;1.00;;;21.20;65.20;;;;;;5071329;28;20031;-71
2021/08/23 03:12:28;;;;;;;3.30;1.00;;;21.20;65.40;;;;;;5072355;28;20361;-64
2021/08/23 03:14:55;;;;;;;2.90;1.17;;;21.10;65.90;;;;;;5073687;28;20431;-65
2021/08/23 03:17:26;;;;;;;3.42;1.20;;;21.10;66.00;;;;;;5070588;28;20498;-70
2021/08/23 03:19:53;;;;;;;3.10;1.38;;;21.20;65.80;;;;;;5070189;28;20086;-69
2021/08/23 03:22:21;;;;;;;2.70;1.17;;;21.10;65.90;;;;;;5072768;28;20025;-65
2021/08/23 03:24:48;;;;;;;1.73;0.98;;;21.20;65.80;;;;;;5074128;28;20043;-69
2021/08/23 03:27:16;;;;;;;1.75;0.90;;;21.10;66.00;;;;;;5074574;28;20032;-72
2021/08/23 03:29:45;;;;;;;2.47;0.95;;;21.10;65.90;;;;;;5074240;28;20025;-68
2021/08/23 03:32:15;;;;;;;2.25;0.93;;;21.00;66.40;;;;;;5073736;28;20174;-67
2021/08/23 03:34:42;;;;;;;4.78;1.38;;;21.10;66.20;;;;;;5074432;28;20111;-66
2021/08/23 03:37:10;;;;;;;0.80;0.80;;;21.00;66.30;;;;;;5069694;28;20025;-69
2021/08/23 03:39:40;;;;;;;1.65;1.05;;;21.00;66.40;;;;;;5061582;28;20055;-63
2021/08/23 03:42:08;;;;;;;2.28;1.02;;;21.00;66.70;;;;;;5068728;28;20028;-64
2021/08/23 03:44:55;;;;;;;2.42;1.23;;;21.00;66.70;;;;;;5069059;28;20032;-63
2021/08/23 03:47:32;;;;;;;3.33;1.52;;;21.00;66.90;;;;;;5069226;28;21147;-66
2021/08/23 03:49:59;;;;;;;1.60;0.82;;;21.00;67.00;;;;;;5068548;28;20316;-70
2021/08/23 03:52:26;;;;;;;4.40;1.05;;;21.00;67.10;;;;;;5067707;28;20166;-67
2021/08/23 03:54:56;;;;;;;2.70;1.08;;;21.00;67.10;;;;;;5067369;28;20364;-65
2021/08/23 03:57:24;;;;;;;2.55;1.10;;;21.10;67.00;;;;;;5067968;28;20029;-69
2021/08/23 03:59:51;;;;;;;1.55;1.02;;;21.00;66.90;;;;;;5067618;28;20391;-64
2021/08/23 04:02:19;;;;;;;1.67;0.85;;;21.00;67.20;;;;;;5068067;28;20025;-71
2021/08/23 04:04:49;;;;;;;2.42;1.02;;;21.10;67.20;;;;;;5068617;28;20483;-66
2021/08/23 04:07:16;;;;;;;2.72;1.00;;;21.10;67.10;;;;;;5070891;28;20183;-70
2021/08/23 04:09:43;;;;;;;1.52;0.98;;;21.20;66.70;;;;;;5071332;28;20027;-68
2021/08/23 04:12:11;;;;;;;3.22;1.20;;;21.20;66.40;;;;;;5070853;28;20020;-65
2021/08/23 04:14:39;;;;;;;2.03;1.13;;;21.30;66.30;;;;;;5072231;28;20143;-71
2021/08/23 04:17:06;;;;;;;5.78;1.10;;;21.30;65.80;;;;;;5071480;28;20029;-68
2021/08/23 04:19:34;;;;;;;6.35;1.30;;;21.30;65.60;;;;;;5071840;28;20414;-67
2021/08/23 04:22:01;;;;;;;2.92;0.95;;;21.40;66.10;;;;;;5071304;28;20505;-70
2021/08/23 04:24:28;;;;;;;2.33;1.20;;;21.40;65.80;;;;;;5071466;28;20032;-71
2021/08/23 04:26:56;;;;;;;5.40;0.95;;;21.40;66.40;;;;;;5071302;28;20179;-64
2021/08/23 04:29:23;;;;;;;4.32;1.00;;;21.30;66.30;;;;;;5071432;28;20058;-69
2021/08/23 04:31:51;;;;;;;3.13;0.88;;;21.30;66.50;;;;;;5071595;28;20052;-64
2021/08/23 04:34:18;;;;;;;3.63;1.27;;;21.20;66.40;;;;;;5071430;28;20542;-68
2021/08/23 04:36:46;;;;;;;4.70;1.10;;;21.20;66.90;;;;;;5071233;28;20622;-65
2021/08/23 04:39:13;;;;;;;2.95;0.95;;;21.10;67.10;;;;;;5071529;28;20532;-71
2021/08/23 04:41:43;;;;;;;1.77;0.90;;;21.10;66.90;;;;;;5071371;28;20492;-65
2021/08/23 04:44:11;;;;;;;2.38;0.95;;;21.10;66.60;;;;;;5070961;28;20029;-67
2021/08/23 04:46:38;;;;;;;2.78;1.00;;;21.00;66.90;;;;;;5072013;28;20028;-66
2021/08/23 04:49:12;;;;;;;7.03;1.30;;;21.10;66.60;;;;;;5071724;28;20020;-68
2021/08/23 04:51:39;;;;;;;3.80;1.15;;;21.10;66.00;;;;;;5070029;28;20387;-65
2021/08/23 04:54:07;;;;;;;2.55;0.70;;;21.10;66.60;;;;;;5070772;28;20552;-68
2021/08/23 04:56:34;;;;;;;6.00;0.93;;;21.00;65.80;;;;;;5071309;28;20024;-70
2021/08/23 04:59:02;;;;;;;6.70;1.30;;;21.10;66.00;;;;;;5070510;28;20048;-71
2021/08/23 05:01:30;;;;;;;1.98;0.82;;;21.10;65.50;;;;;;5070854;28;20016;-68
2021/08/23 05:03:57;;;;;;;1.40;0.75;;;21.00;65.40;;;;;;5071204;28;20016;-69
2021/08/23 05:06:24;;;;;;;3.28;1.15;;;21.00;66.30;;;;;;5070481;28;20028;-65
2021/08/23 05:08:54;;;;;;;3.53;0.80;;;21.00;65.90;;;;;;5070580;28;20021;-67
2021/08/23 05:11:21;;;;;;;3.65;0.93;;;21.00;65.90;;;;;;5071021;28;20016;-70
2021/08/23 05:13:48;;;;;;;3.17;0.85;;;21.00;65.20;;;;;;5071906;28;20044;-69
2021/08/23 05:16:16;;;;;;;1.27;0.50;;;21.00;64.80;;;;;;5070143;28;20094;-67
2021/08/23 05:18:43;;;;;;;3.45;0.90;;;21.00;65.60;;;;;;5070715;28;20072;-73
2021/08/23 05:21:11;;;;;;;4.50;0.85;;;21.00;65.70;;;;;;5068683;28;20174;-68
2021/08/23 05:23:41;;;;;;;3.58;1.23;;;20.90;66.50;;;;;;5070385;28;20086;-66
2021/08/23 05:26:10;;;;;;;1.50;0.55;;;20.90;66.10;;;;;;5068338;28;20138;-66
2021/08/23 05:28:37;;;;;;;1.52;0.77;;;20.90;65.90;;;;;;5075547;28;20116;-77
2021/08/23 05:31:05;;;;;;;6.03;0.70;;;21.00;66.50;;;;;;5064729;28;20419;-65
2021/08/23 05:33:32;;;;;;;5.20;1.25;;;21.00;65.20;;;;;;5074069;28;20035;-67
2021/08/23 05:36:00;;;;;;;5.32;0.90;;;20.90;65.90;;;;;;5071785;28;20540;-68
2021/08/23 05:38:28;;;;;;;2.25;0.65;;;20.80;65.80;;;;;;5074250;28;20034;-68
2021/08/23 05:40:55;;;;;;;2.38;0.98;;;20.80;65.40;;;;;;5072359;28;20024;-68
2021/08/23 05:43:23;;;;;;;1.85;0.60;;;20.80;66.70;;;;;;5073707;28;20107;-69
2021/08/23 05:45:50;;;;;;;8.27;2.25;;;20.80;66.20;;;;;;5069964;28;20054;-70
2021/08/23 05:48:18;;;;;;;2.20;0.63;;;20.80;66.20;;;;;;5069147;28;20064;-69
2021/08/23 05:50:52;;;;;;;1.40;0.55;;;20.70;65.40;;;;;;5073008;28;20101;-64
2021/08/23 05:53:19;;;;;;;1.20;0.50;;;20.70;66.10;;;;;;5073593;28;20031;-65
2021/08/23 05:55:47;;;;;;;2.50;0.70;;;20.70;66.70;;;;;;5070501;28;20462;-70
2021/08/23 05:58:17;;;;;;;2.72;0.50;;;20.80;66.40;;;;;;5074642;28;20032;-68
2021/08/23 06:00:54;;;;;;;1.52;0.60;;;20.70;66.80;;;;;;5075056;28;20075;-61
2021/08/23 06:03:30;;;;;;;2.67;0.50;;;20.70;67.00;;;;;;5074922;28;20021;-66
2021/08/23 06:05:57;;;;;;;4.07;0.82;;;20.70;66.80;;;;;;5074771;28;20016;-70
2021/08/23 06:08:24;;;;;;;1.70;0.60;;;20.70;67.30;;;;;;5074217;28;20376;-66
2021/08/23 06:10:52;;;;;;;2.08;0.77;;;20.60;66.40;;;;;;5073742;28;20017;-69
2021/08/23 06:13:19;;;;;;;2.85;0.60;;;20.70;66.60;;;;;;5074315;28;20505;-70
2021/08/23 06:15:47;;;;;;;1.52;0.70;;;20.60;65.90;;;;;;5074481;28;20028;-69
2021/08/23 06:18:14;;;;;;;0.95;0.70;;;20.60;66.80;;;;;;5074510;28;20024;-62
2021/08/23 06:20:42;;;;;;;0.85;0.57;;;20.60;66.70;;;;;;5074680;28;20036;-65
2021/08/23 06:23:10;;;;;;;2.25;0.80;;;20.60;66.60;;;;;;5074353;28;20023;-68
2021/08/23 06:25:37;;;;;;;1.70;0.70;;;20.60;65.90;;;;;;5074676;28;20029;-65
2021/08/23 06:28:06;;;;;;;0.82;0.50;;;20.60;66.10;;;;;;5074224;28;20024;-66
2021/08/23 06:30:33;;;;;;;4.43;0.65;;;20.50;66.90;;;;;;5073487;28;20032;-64
2021/08/23 06:33:00;;;;;;;4.82;0.80;;;20.50;66.40;;;;;;5073376;28;20505;-63
2021/08/23 06:35:28;;;;;;;3.28;0.70;;;20.50;67.10;;;;;;5073616;28;20066;-63
2021/08/23 06:37:55;;;;;;;2.80;1.02;;;20.50;67.20;;;;;;5073670;28;20027;-64
2021/08/23 06:40:23;;;;;;;0.88;0.60;;;20.40;67.40;;;;;;5073673;28;20119;-66
2021/08/23 06:42:50;;;;;;;2.05;0.88;;;20.40;67.00;;;;;;5073379;28;20386;-67
2021/08/23 06:45:17;;;;;;;2.55;0.55;;;20.40;67.00;;;;;;5072503;28;20367;-68
2021/08/23 06:47:45;;;;;;;2.63;0.70;;;20.40;66.50;;;;;;5073666;28;20120;-69
2021/08/23 06:50:15;;;;;;;0.95;0.50;;;20.50;67.30;;;;;;5072090;28;20053;-68
2021/08/23 06:52:44;;;;;;;1.25;0.45;;;20.30;67.80;;;;;;5073549;28;20040;-68
2021/08/23 06:55:12;;;;;;;2.90;0.60;;;20.30;67.90;;;;;;5072380;28;20052;-67
2021/08/23 06:57:39;;;;;;;1.77;0.90;;;20.40;67.60;;;;;;5072356;28;20035;-69
2021/08/23 07:00:07;;;;;;;3.10;0.63;;;20.30;68.00;;;;;;5073651;28;20439;-68
2021/08/23 07:02:35;;;;;;;4.70;1.13;;;20.30;68.10;;;;;;5073478;28;20063;-67
2021/08/23 07:05:02;;;;;;;1.98;0.73;;;20.30;67.90;;;;;;5073511;28;20116;-70
2021/08/23 07:07:32;;;;;;;1.10;0.35;;;20.30;68.30;;;;;;5073614;28;20021;-71
2021/08/23 07:09:59;;;;;;;1.65;0.73;;;20.30;68.30;;;;;;5072984;28;20086;-68
2021/08/23 07:12:27;;;;;;;0.98;0.60;;;20.30;68.60;;;;;;5063807;28;20032;-67
2021/08/23 07:14:55;;;;;;;1.83;0.90;;;20.20;68.80;;;;;;5072507;28;20487;-70
2021/08/23 07:17:22;;;;;;;1.60;0.70;;;20.20;68.70;;;;;;5072958;28;20036;-71
2021/08/23 07:19:49;;;;;;;1.02;0.60;;;20.20;68.60;;;;;;5070236;28;20360;-66
2021/08/23 07:22:19;;;;;;;1.10;0.50;;;20.20;68.80;;;;;;5071204;28;20016;-70
2021/08/23 07:24:49;;;;;;;2.28;0.80;;;20.20;68.80;;;;;;5072543;28;20046;-64
2021/08/23 07:27:17;;;;;;;2.13;0.75;;;20.20;68.80;;;;;;5069018;28;20050;-69
2021/08/23 07:29:45;;;;;;;1.20;0.60;;;20.20;69.00;;;;;;5069703;28;20024;-67
2021/08/23 07:32:13;;;;;;;1.50;0.75;;;20.10;69.00;;;;;;5069075;28;20123;-67
2021/08/23 07:34:40;;;;;;;1.58;0.75;;;20.20;69.20;;;;;;5072156;28;20050;-72
2021/08/23 07:37:14;;;;;;;0.68;0.47;;;20.20;69.10;;;;;;5072093;28;20487;-70
2021/08/23 07:39:43;;;;;;;0.35;0.35;;;20.20;69.90;;;;;;5069620;28;20115;-69
2021/08/23 07:42:14;;;;;;;2.50;0.65;;;20.20;69.40;;;;;;5068893;28;20518;-68
2021/08/23 07:44:45;;;;;;;1.42;0.70;;;20.10;69.30;;;;;;5072467;28;20063;-68
2021/08/23 07:47:13;;;;;;;2.13;0.70;;;20.20;69.40;;;;;;5072305;28;20025;-67
2021/08/23 07:49:41;;;;;;;0.65;0.55;;;20.10;69.50;;;;;;5071703;28;20039;-66
2021/08/23 07:52:08;;;;;;;1.08;0.90;;;20.10;69.40;;;;;;5067931;28;20021;-69
2021/08/23 07:54:36;;;;;;;3.28;0.80;;;20.10;69.30;;;;;;5069753;28;20039;-69
2021/08/23 07:57:05;;;;;;;2.03;0.90;;;20.10;69.40;;;;;;5071525;28;20095;-66
2021/08/23 07:59:33;;;;;;;1.92;0.82;;;20.10;69.50;;;;;;5071742;28;20036;-63
2021/08/23 08:02:00;;;;;;;1.38;0.70;;;20.10;69.40;;;;;;5066673;28;20055;-67
2021/08/23 08:04:28;;;;;;;2.22;1.00;;;20.10;69.40;;;;;;5071955;28;20028;-67
2021/08/23 08:06:56;;;;;;;1.77;0.77;;;20.10;69.60;;;;;;5071732;28;20074;-70
2021/08/23 08:09:24;;;;;;;2.50;0.95;;;20.10;69.50;;;;;;5071652;28;20021;-69
2021/08/23 08:11:51;;;;;;;1.40;0.70;;;20.10;69.50;;;;;;5066500;28;20028;-65
2021/08/23 08:14:19;;;;;;;1.08;0.80;;;20.00;69.60;;;;;;5070855;28;20450;-68
2021/08/23 08:16:46;;;;;;;1.05;0.90;;;20.10;69.70;;;;;;5071467;28;20020;-67
2021/08/23 08:19:14;;;;;;;1.77;0.90;;;20.00;69.80;;;;;;5071390;28;20074;-65
2021/08/23 08:21:41;;;;;;;1.95;0.80;;;20.00;70.00;;;;;;5066443;28;20356;-67
2021/08/23 08:24:09;;;;;;;5.93;1.10;;;20.00;70.20;;;;;;5069494;28;20016;-67
2021/08/23 08:26:36;;;;;;;1.33;0.98;;;20.00;70.00;;;;;;5071537;28;20497;-67
2021/08/23 08:29:04;;;;;;;1.65;0.50;;;20.00;70.20;;;;;;5071486;28;20025;-70
2021/08/23 08:31:31;;;;;;;1.42;0.40;;;19.90;70.50;;;;;;5066740;28;20495;-67
2021/08/23 08:33:59;;;;;;;1.27;0.88;;;19.90;70.70;;;;;;5070209;28;20064;-68
2021/08/23 08:36:26;;;;;;;1.05;0.60;;;19.80;70.80;;;;;;5071907;28;20096;-64
2021/08/23 08:38:54;;;;;;;3.00;1.00;;;19.80;71.00;;;;;;5071406;28;20025;-68
2021/08/23 08:41:31;;;;;;;1.27;0.70;;;19.80;72.10;;;;;;5068843;28;20356;-67
2021/08/23 08:44:00;;;;;;;1.15;0.63;;;19.80;71.20;;;;;;5071182;28;20028;-66
2021/08/23 08:46:29;;;;;;;2.00;1.10;;;19.80;71.30;;;;;;5068703;28;20407;-65
2021/08/23 08:48:58;;;;;;;7.22;1.88;;;19.80;72.00;;;;;;5071287;28;20471;-66
2021/08/23 08:51:25;;;;;;;8.88;1.30;;;19.80;73.70;;;;;;5064427;28;20352;-66
2021/08/23 08:53:53;;;;;;;2.90;1.35;;;19.80;74.00;;;;;;5072149;28;20507;-68
2021/08/23 08:56:20;;;;;;;3.20;1.23;;;19.80;72.90;;;;;;5074813;28;20040;-68
2021/08/23 08:58:48;;;;;;;3.83;1.10;;;19.80;72.80;;;;;;5072686;28;20031;-67
2021/08/23 09:01:15;;;;;;;3.35;1.80;;;19.70;73.80;;;;;;5067553;28;20020;-67
2021/08/23 09:03:46;;;;;;;1.88;1.20;;;19.70;74.90;;;;;;5073660;28;20035;-73
2021/08/23 09:06:14;;;;;;;6.22;1.20;;;19.70;74.00;;;;;;5070986;28;20021;-70
2021/08/23 09:08:44;;;;;;;2.60;1.20;;;19.70;74.20;;;;;;5072635;28;20028;-68
2021/08/23 09:11:16;;;;;;;2.38;1.50;;;19.70;74.80;;;;;;5067077;28;20036;-68
2021/08/23 09:13:57;;;;;;;;;;;19.70;73.60;;;;;;5075802;28;20107;-69
2021/08/23 09:16:33;;;;;;;2.15;1.38;;;19.70;73.70;;;;;;5072647;28;19904;-70
2021/08/23 09:19:00;;;;;;;2.40;1.30;;;19.70;73.60;;;;;;5075245;28;20101;-74
2021/08/23 09:21:29;;;;;;;2.03;1.38;;;19.70;72.70;;;;;;5071613;28;20024;-73
2021/08/23 09:23:58;;;;;;;3.63;2.00;;;19.70;72.90;;;;;;5073681;28;20020;-70
2021/08/23 09:26:32;;;;;;;3.95;1.52;;;19.70;75.00;;;;;;5067677;28;20570;-72
2021/08/23 09:29:07;;;;;;;4.40;1.60;;;19.60;73.00;;;;;;5069932;28;20078;-70
2021/08/23 09:31:37;;;;;;;3.40;1.80;;;19.60;74.90;;;;;;5064482;28;20055;-69
2021/08/23 09:34:08;;;;;;;5.43;2.30;;;19.60;74.50;;;;;;5070081;28;20089;-70
2021/08/23 09:36:36;;;;;;;3.92;1.65;;;19.60;76.20;;;;;;5069553;28;20029;-73
2021/08/23 09:39:08;;;;;;;3.58;1.77;;;19.60;73.90;;;;;;5069984;28;20383;-72
2021/08/23 09:41:40;;;;;;;2.20;1.60;;;19.70;75.90;;;;;;5064794;28;20111;-71
2021/08/23 09:44:11;;;;;;;2.95;1.77;;;19.70;75.60;;;;;;5069566;28;20027;-73
2021/08/23 09:46:40;;;;;;;3.42;2.22;;;19.70;76.00;;;;;;5069118;28;20067;-70
2021/08/23 09:49:10;;;;;;;7.38;2.60;;;19.70;77.10;;;;;;5069444;28;20439;-67
2021/08/23 09:51:43;;;;;;;2.58;1.58;;;19.60;76.40;;;;;;5066173;28;20047;-75
2021/08/23 09:54:17;;;;;;;2.63;1.40;;;19.60;74.70;;;;;;5069394;28;20116;-71
2021/08/23 09:56:51;;;;;;;6.38;2.25;;;19.60;74.50;;;;;;5068983;28;20020;-70
2021/08/23 09:59:24;;;;;;;4.03;1.70;;;19.60;75.70;;;;;;5068851;28;20051;-69
2021/08/23 10:01:53;;;;;;;2.95;1.63;;;19.60;75.30;;;;;;5064149;28;20024;-68
2021/08/23 10:04:22;;;;;;;2.45;1.83;;;19.60;73.90;;;;;;5068573;28;20024;-64
2021/08/23 10:06:51;;;;;;;9.70;3.70;;;19.60;74.60;;;;;;5068696;28;20021;-72
2021/08/23 10:09:19;;;;;;;5.03;2.17;;;19.60;76.50;;;;;;5068906;28;20016;-75
2021/08/23 10:11:47;;;;;;;2.42;1.63;;;19.60;76.00;;;;;;5064620;28;20342;-72
2021/08/23 10:14:15;;;;;;;8.77;1.90;;;19.60;74.80;;;;;;5069069;28;21168;-68
2021/08/23 10:16:43;;;;;;;3.05;1.48;;;19.60;74.80;;;;;;5068297;28;20044;-66
2021/08/23 10:19:11;;;;;;;8.55;2.70;;;19.50;74.40;;;;;;5069071;28;20013;-70
2021/08/23 10:21:43;;;;;;;3.65;1.92;;;19.60;76.40;;;;;;5063931;28;20429;-72
2021/08/23 10:24:38;;;;;;;2.88;1.70;;;19.60;75.20;;;;;;5069574;28;20095;-72
2021/08/23 10:27:06;;;;;;;3.85;1.83;;;19.50;74.80;;;;;;5065624;28;20375;-72
2021/08/23 10:29:41;;;;;;;4.70;2.13;;;19.60;75.30;;;;;;5068154;28;20035;-70
2021/08/23 10:32:11;;;;;;;5.32;1.70;;;19.60;74.70;;;;;;5063897;28;20167;-66
2021/08/23 10:34:39;;;;;;;4.80;1.50;;;19.50;75.40;;;;;;5068119;28;20119;-65
2021/08/23 10:37:18;;;;;;;2.28;1.70;;;19.50;74.50;;;;;;5066719;28;20028;-70
2021/08/23 10:39:45;;;;;;;6.13;1.80;;;19.50;74.70;;;;;;5068567;28;20021;-72
2021/08/23 10:42:20;;;;;;;5.30;2.05;;;19.50;74.90;;;;;;5068699;28;20105;-71
2021/08/23 10:44:47;;;;;;;7.22;2.00;;;19.50;75.90;;;;;;5068495;28;20021;-66
2021/08/23 10:47:33;;;;;;;6.55;1.88;;;19.40;75.20;;;;;;5070577;28;20073;-69
2021/08/23 10:50:00;;;;;;;4.13;1.38;;;19.40;75.00;;;;;;5065206;28;20060;-73
2021/08/23 10:52:37;;;;;;;4.30;1.58;;;19.40;74.30;;;;;;5065391;28;20032;-71
2021/08/23 10:55:22;;;;;;;3.50;1.48;;;19.40;75.10;;;;;;5068804;28;20062;-66
2021/08/23 10:57:49;;;;;;;4.78;1.98;;;19.40;74.60;;;;;;5070374;28;20119;-71
2021/08/23 11:00:20;;;;;;;2.42;1.60;;;19.40;74.40;;;;;;5063947;28;21450;-69
2021/08/23 11:02:58;;;;;;;1.45;1.33;;;19.40;74.30;;;;;;5067916;28;20031;-71
2021/08/23 11:05:26;;;;;;;4.18;1.65;;;19.40;74.30;;;;;;5072851;28;20024;-69
2021/08/23 11:08:09;;;;;;;3.75;1.70;;;19.40;74.00;;;;;;5072694;28;20063;-69
2021/08/23 11:10:39;;;;;;;2.10;1.35;;;19.40;74.10;;;;;;5068019;28;20024;-69
2021/08/23 11:13:20;;;;;;;3.58;1.35;;;19.40;74.10;;;;;;5072816;28;20024;-70
2021/08/23 11:15:47;;;;;;;3.08;1.50;;;19.40;74.30;;;;;;5072856;28;20063;-68
2021/08/23 11:18:17;;;;;;;5.10;1.67;;;19.40;74.20;;;;;;5069660;28;20037;-74
2021/08/23 11:20:53;;;;;;;2.35;1.40;;;19.40;74.60;;;;;;5067870;28;20024;-71
2021/08/23 11:23:51;;;;;;;;;;;;;;;;;;;;;
2021/08/23 11:26:45;;;;;;;9.73;2.70;;;19.40;74.60;;;;;;5065043;28;20045;-66
2021/08/23 11:29:13;;;;;;;3.53;1.55;;;19.40;74.70;;;;;;5069430;28;20036;-73
2021/08/23 11:31:57;;;;;;;7.03;1.73;;;19.40;74.30;;;;;;5062366;28;20466;-64
2021/08/23 11:34:32;;;;;;;5.78;2.00;;;19.30;75.70;;;;;;5065449;28;20057;-69
2021/08/23 11:37:10;;;;;;;3.50;1.83;;;19.40;75.50;;;;;;5066354;28;20116;-70
2021/08/23 11:39:38;;;;;;;6.63;2.22;;;19.40;74.50;;;;;;5068638;28;20744;-71
2021/08/23 11:42:27;;;;;;;3.55;1.70;;;19.40;75.80;;;;;;5064338;28;20637;-64
2021/08/23 11:48:29;;;;;;;2.15;1.63;;;19.40;75.30;;;;;;5071076;28;20043;-67
2021/08/23 11:51:30;;;;;;;3.85;1.33;;;19.40;74.00;;;;;;5059992;28;20128;-69
2021/08/23 11:54:06;;;;;;;3.15;1.55;;;19.40;74.00;;;;;;5067816;28;20040;-67
2021/08/23 11:56:55;;;;;;;1.98;1.50;;;19.40;74.00;;;;;;5069639;28;20505;-64
2021/08/23 12:04:00;;;;;;;3.08;2.08;;;19.40;74.30;;;;;;5025375;28;20446;-68
2021/08/23 12:07:18;;;;;;;3.90;1.70;;;19.30;75.70;;;;;;5055125;28;20127;-64
2021/08/23 12:09:57;;;;;;;17.10;3.30;;;19.30;76.00;;;;;;5059506;28;20194;-67
2021/08/23 12:12:29;;;;;;;6.93;2.20;;;19.30;75.10;;;;;;5068098;28;20058;-65
2021/08/23 12:15:00;;;;;;;2.03;1.52;;;19.30;75.20;;;;;;5064531;28;20092;-68
2021/08/23 12:17:32;;;;;;;7.97;2.72;;;19.30;74.40;;;;;;5064084;28;20028;-64
2021/08/23 12:20:12;;;;;;;6.00;2.28;;;19.30;77.50;;;;;;5062490;28;20020;-68
2021/08/23 12:25:30;;;;;;;3.17;1.60;;;19.30;74.40;;;;;;5067191;28;20526;-64
2021/08/23 12:27:58;;;;;;;3.55;1.70;;;19.30;74.80;;;;;;5072755;28;20040;-68
2021/08/23 12:30:46;;;;;;;4.75;1.77;;;19.30;75.50;;;;;;5071515;28;20084;-67
2021/08/23 12:33:25;;;;;;;3.10;1.52;;;19.30;75.80;;;;;;5073721;28;20063;-68
2021/08/23 12:35:53;;;;;;;5.40;2.17;;;19.30;74.10;;;;;;5071083;28;20029;-64
2021/08/23 12:38:45;;;;;;;2.20;1.42;;;19.30;76.30;;;;;;5070583;28;20024;-63
2021/08/23 12:41:13;;;;;;;2.42;1.83;;;19.30;75.10;;;;;;5063896;28;20127;-65
2021/08/23 12:43:50;;;;;;;3.70;1.95;;;19.30;74.20;;;;;;5070360;28;20415;-65
2021/08/23 12:46:18;;;;;;;3.08;1.75;;;19.20;75.50;;;;;;5071321;28;20048;-66
2021/08/23 12:48:46;;;;;;;2.90;1.65;;;19.20;74.30;;;;;;5071819;28;20032;-67
2021/08/23 12:51:14;;;;;;;2.03;1.45;;;19.20;74.60;;;;;;5071345;28;20036;-70
2021/08/23 12:53:44;;;;;;;1.70;1.45;;;19.20;74.20;;;;;;5070200;28;20098;-69
2021/08/23 12:56:13;;;;;;;2.17;1.50;;;19.20;74.10;;;;;;5071456;28;20036;-69
2021/08/23 12:58:41;;;;;;;4.60;2.10;;;19.10;74.30;;;;;;5072263;28;20020;-66
2021/08/23 13:01:14;;;;;;;6.65;2.33;;;19.20;75.50;;;;;;5071285;28;20502;-65
2021/08/23 13:03:43;;;;;;;2.67;1.80;;;19.10;78.00;;;;;;5071228;28;20422;-64
2021/08/23 13:06:11;;;;;;;2.88;1.60;;;19.10;74.80;;;;;;5070157;28;20628;-67
2021/08/23 13:08:51;;;;;;;2.47;1.80;;;19.10;75.10;;;;;;5071458;28;20107;-66
2021/08/23 13:11:19;;;;;;;5.53;1.80;;;19.10;75.70;;;;;;5070541;28;20108;-66
2021/08/23 13:13:47;;;;;;;4.88;1.75;;;19.10;74.90;;;;;;5070879;28;20372;-67